Time;durP1;ratioP1;P1;durP2;ratioP2;P2;SDS_P1;SDS_P2;PMS_P1;PMS_P2;Temp;Humidity;BMP_temperature;BMP_pressure;BME280_temperature;BME280_humidity;BME280_pressure;Samples;Min_cycle;Max_cycle;Signal;HPM_P1;HPM_P2
2023/12/24 00:02:14;;;;;;;20.15;4.75;;;;;;;;;;5086350;28;20428;-82
2023/12/24 00:04:41;;;;;;;20.53;4.77;;;;;;;;;;5084022;28;20545;-82
2023/12/24 00:07:07;;;;;;;20.00;4.50;;;;;;;;;;5080909;28;20464;-82
2023/12/24 00:09:33;;;;;;;18.45;4.78;;;;;;;;;;5070508;28;20461;-82
2023/12/24 00:11:59;;;;;;;23.67;5.15;;;;;;;;;;5107404;27;20432;-82
2023/12/24 00:14:25;;;;;;;19.20;5.05;;;;;;;;;;5075769;28;20637;-82
2023/12/24 00:16:51;;;;;;;20.13;5.40;;;;;;;;;;5074509;28;20398;-82
2023/12/24 00:19:18;;;;;;;18.80;4.85;;;;;;;;;;5043921;28;20425;-82
2023/12/24 00:21:44;;;;;;;22.67;5.40;;;;;;;;;;5040549;28;20402;-83
2023/12/24 00:24:13;;;;;;;21.23;5.00;;;;;;;;;;5068195;28;20478;-82
2023/12/24 00:26:39;;;;;;;18.65;4.85;;;;;;;;;;5071717;28;20399;-81
2023/12/24 00:29:05;;;;;;;20.65;5.00;;;;;;;;;;5074858;28;20398;-82
2023/12/24 00:31:32;;;;;;;20.45;6.10;;;;;;;;;;5058002;28;20785;-82
2023/12/24 00:33:58;;;;;;;19.97;5.10;;;;;;;;;;5040629;28;20481;-82
2023/12/24 00:36:24;;;;;;;19.15;4.93;;;;;;;;;;5029929;28;20400;-82
2023/12/24 00:38:50;;;;;;;17.33;4.97;;;;;;;;;;5078521;28;20908;-82
2023/12/24 00:41:16;;;;;;;22.95;5.22;;;;;;;;;;5087874;28;20641;-81
2023/12/24 00:43:45;;;;;;;21.38;4.72;;;;;;;;;;5030725;28;20406;-82
2023/12/24 00:46:15;;;;;;;24.25;5.32;;;;;;;;;;5060382;28;20437;-83
2023/12/24 00:48:41;;;;;;;19.48;5.18;;;;;;;;;;5078142;28;20409;-83
2023/12/24 00:51:07;;;;;;;18.38;4.60;;;;;;;;;;5051282;28;20415;-83
2023/12/24 00:53:33;;;;;;;22.57;5.20;;;;;;;;;;5067419;28;20402;-83
2023/12/24 00:55:59;;;;;;;20.65;4.68;;;;;;;;;;5068139;28;20428;-83
2023/12/24 00:58:27;;;;;;;25.05;4.80;;;;;;;;;;5063461;28;20759;-83
2023/12/24 01:00:53;;;;;;;23.73;5.80;;;;;;;;;;5059267;28;20510;-83
2023/12/24 01:03:19;;;;;;;26.38;5.95;;;;;;;;;;5072638;28;20400;-83
2023/12/24 01:05:46;;;;;;;20.20;5.53;;;;;;;;;;5055798;28;20395;-82
2023/12/24 01:08:12;;;;;;;24.58;5.55;;;;;;;;;;5057233;28;20908;-83
2023/12/24 01:10:38;;;;;;;20.27;4.93;;;;;;;;;;5067129;28;20396;-82
2023/12/24 01:13:04;;;;;;;22.70;5.25;;;;;;;;;;5071865;28;20964;-83
2023/12/24 01:15:30;;;;;;;19.92;5.18;;;;;;;;;;5103798;28;20402;-84
2023/12/24 01:17:56;;;;;;;26.57;5.23;;;;;;;;;;5059036;28;20402;-83
2023/12/24 01:20:22;;;;;;;20.35;5.13;;;;;;;;;;5038059;28;20406;-83
2023/12/24 01:22:49;;;;;;;22.35;5.15;;;;;;;;;;5090573;28;20408;-83
2023/12/24 01:25:15;;;;;;;22.75;5.40;;;;;;;;;;5073314;28;20413;-83
2023/12/24 01:27:44;;;;;;;23.38;5.65;;;;;;;;;;5070763;28;20402;-84
2023/12/24 01:30:10;;;;;;;20.37;5.30;;;;;;;;;;5101368;28;20403;-83
2023/12/24 01:32:44;;;;;;;15.63;4.95;;;;;;;;;;5092224;28;20770;-83
2023/12/24 01:35:10;;;;;;;22.20;5.28;;;;;;;;;;5090467;28;20826;-83
2023/12/24 01:37:37;;;;;;;18.35;4.95;;;;;;;;;;5056251;28;20401;-82
2023/12/24 01:40:03;;;;;;;17.88;5.00;;;;;;;;;;5089888;28;20402;-83
2023/12/24 01:42:29;;;;;;;18.47;5.00;;;;;;;;;;5089061;28;20459;-83
2023/12/24 01:44:55;;;;;;;17.80;5.30;;;;;;;;;;5071789;28;20425;-85
2023/12/24 01:47:21;;;;;;;16.67;4.57;;;;;;;;;;5097194;28;20960;-84
2023/12/24 01:49:48;;;;;;;15.98;4.50;;;;;;;;;;5073621;28;20941;-84
2023/12/24 01:52:18;;;;;;;15.63;4.82;;;;;;;;;;5081641;28;20428;-83
2023/12/24 01:54:48;;;;;;;16.73;5.18;;;;;;;;;;5075785;28;20394;-83
2023/12/24 01:57:23;;;;;;;18.52;5.43;;;;;;;;;;5089978;28;20931;-84
2023/12/24 01:59:50;;;;;;;22.02;5.82;;;;;;;;;;5072343;28;20449;-83
2023/12/24 02:02:18;;;;;;;19.25;6.35;;;;;;;;;;5092386;28;20426;-83
2023/12/24 02:04:44;;;;;;;21.27;6.17;;;;;;;;;;5090801;28;20387;-83
2023/12/24 02:07:11;;;;;;;20.00;6.30;;;;;;;;;;5107916;27;20430;-83
2023/12/24 02:09:37;;;;;;;21.80;6.03;;;;;;;;;;5074632;28;20408;-83
2023/12/24 02:12:03;;;;;;;21.10;5.57;;;;;;;;;;5094511;28;20434;-82
2023/12/24 02:14:30;;;;;;;17.73;5.30;;;;;;;;;;5064723;28;20406;-82
2023/12/24 02:16:59;;;;;;;15.82;5.10;;;;;;;;;;5076504;28;20398;-82
2023/12/24 02:19:25;;;;;;;19.77;5.38;;;;;;;;;;5060093;28;20421;-82
2023/12/24 02:21:51;;;;;;;24.15;6.10;;;;;;;;;;5059839;28;20409;-82
2023/12/24 02:24:17;;;;;;;26.58;6.50;;;;;;;;;;5085264;28;20409;-83
2023/12/24 02:26:52;;;;;;;25.08;6.55;;;;;;;;;;5042448;28;20489;-83
2023/12/24 02:29:26;;;;;;;21.23;6.63;;;;;;;;;;5071203;28;20405;-83
2023/12/24 02:31:59;;;;;;;25.27;6.50;;;;;;;;;;5083813;28;20555;-84
2023/12/24 02:34:26;;;;;;;21.40;6.57;;;;;;;;;;5074387;28;20453;-83
2023/12/24 02:36:52;;;;;;;20.27;6.38;;;;;;;;;;5064999;28;20399;-83
2023/12/24 02:39:18;;;;;;;26.77;6.25;;;;;;;;;;5078101;28;20395;-84
2023/12/24 02:41:44;;;;;;;20.92;5.80;;;;;;;;;;5076201;28;20445;-84
2023/12/24 02:44:11;;;;;;;23.80;6.00;;;;;;;;;;5059342;28;20401;-84
2023/12/24 02:46:37;;;;;;;22.95;6.03;;;;;;;;;;5059280;28;20971;-84
2023/12/24 02:49:03;;;;;;;20.83;5.97;;;;;;;;;;5080624;28;20789;-83
2023/12/24 02:51:29;;;;;;;20.20;5.68;;;;;;;;;;5059716;28;20471;-83
2023/12/24 02:53:55;;;;;;;23.13;5.38;;;;;;;;;;5059350;28;20406;-83
2023/12/24 02:56:21;;;;;;;16.93;5.17;;;;;;;;;;5067038;28;20393;-83
2023/12/24 02:58:47;;;;;;;15.50;5.20;;;;;;;;;;5034276;28;20405;-83
2023/12/24 03:01:13;;;;;;;18.88;5.55;;;;;;;;;;5063121;28;20747;-83
2023/12/24 03:03:39;;;;;;;22.52;5.60;;;;;;;;;;5066536;28;20427;-83
2023/12/24 03:06:05;;;;;;;20.10;5.80;;;;;;;;;;5068204;28;20457;-83
2023/12/24 03:08:31;;;;;;;15.35;4.75;;;;;;;;;;5055069;28;20424;-82
2023/12/24 03:10:57;;;;;;;16.90;5.05;;;;;;;;;;5047088;28;20406;-83
2023/12/24 03:13:24;;;;;;;14.57;4.80;;;;;;;;;;5076380;28;20410;-83
2023/12/24 03:15:50;;;;;;;16.85;5.10;;;;;;;;;;5074657;28;20751;-82
2023/12/24 03:18:16;;;;;;;18.90;5.50;;;;;;;;;;5106399;27;20445;-82
2023/12/24 03:20:42;;;;;;;16.30;4.57;;;;;;;;;;5093579;28;20461;-82
2023/12/24 03:23:08;;;;;;;16.08;4.70;;;;;;;;;;5079857;28;20414;-83
2023/12/24 03:25:34;;;;;;;13.45;4.70;;;;;;;;;;5105495;28;20436;-83
2023/12/24 03:28:00;;;;;;;13.17;4.23;;;;;;;;;;5061215;28;20415;-82
2023/12/24 03:30:26;;;;;;;11.65;4.15;;;;;;;;;;5092169;28;20413;-83
2023/12/24 03:32:52;;;;;;;10.45;3.60;;;;;;;;;;5056049;28;20809;-84
2023/12/24 03:35:18;;;;;;;8.82;3.58;;;;;;;;;;5074740;28;20452;-84
2023/12/24 03:37:44;;;;;;;11.60;3.85;;;;;;;;;;5110250;27;20409;-83
2023/12/24 03:40:11;;;;;;;9.98;3.50;;;;;;;;;;5071595;28;20851;-84
2023/12/24 03:42:37;;;;;;;11.00;4.00;;;;;;;;;;5073434;28;20417;-84
2023/12/24 03:45:03;;;;;;;9.35;3.63;;;;;;;;;;5075284;28;20808;-84
2023/12/24 03:47:29;;;;;;;7.43;3.80;;;;;;;;;;5086513;28;20464;-84
2023/12/24 03:49:58;;;;;;;12.07;3.97;;;;;;;;;;5123500;27;20462;-84
2023/12/24 03:52:24;;;;;;;9.05;3.28;;;;;;;;;;5072547;28;20456;-83
2023/12/24 03:54:50;;;;;;;8.55;3.00;;;;;;;;;;5073869;28;20423;-84
2023/12/24 03:57:19;;;;;;;8.98;3.10;;;;;;;;;;5058304;28;20398;-84
2023/12/24 03:59:45;;;;;;;7.55;2.90;;;;;;;;;;5108258;28;20477;-83
2023/12/24 04:02:26;;;;;;;8.75;2.67;;;;;;;;;;5090142;28;20497;-84
2023/12/24 04:05:03;;;;;;;9.10;2.85;;;;;;;;;;5059090;28;20472;-84
2023/12/24 04:07:48;;;;;;;7.40;2.43;;;;;;;;;;5088652;28;20845;-84
2023/12/24 04:10:26;;;;;;;6.70;2.53;;;;;;;;;;5106237;27;20408;-83
2023/12/24 04:13:06;;;;;;;7.65;2.28;;;;;;;;;;5076315;28;20491;-82
2023/12/24 04:15:36;;;;;;;4.70;2.15;;;;;;;;;;5107879;28;20401;-82
2023/12/24 04:18:06;;;;;;;6.70;2.30;;;;;;;;;;5068395;28;20545;-82
2023/12/24 04:20:38;;;;;;;5.95;1.98;;;;;;;;;;5088770;28;20459;-83
2023/12/24 04:23:04;;;;;;;5.97;2.00;;;;;;;;;;5070727;28;21016;-83
2023/12/24 04:25:30;;;;;;;5.22;2.00;;;;;;;;;;5099114;28;20406;-83
2023/12/24 04:27:56;;;;;;;5.78;2.10;;;;;;;;;;5062451;28;20399;-82
2023/12/24 04:30:25;;;;;;;4.85;1.80;;;;;;;;;;5071661;28;20846;-83
2023/12/24 04:32:51;;;;;;;4.93;1.63;;;;;;;;;;5111937;27;20465;-84
2023/12/24 04:35:17;;;;;;;4.13;1.80;;;;;;;;;;5054633;28;20478;-84
2023/12/24 04:37:43;;;;;;;6.60;2.00;;;;;;;;;;5070373;28;20785;-82
2023/12/24 04:40:09;;;;;;;6.72;2.25;;;;;;;;;;5114355;27;20915;-84
2023/12/24 04:42:43;;;;;;;6.20;2.20;;;;;;;;;;5107949;27;20870;-83
2023/12/24 04:45:09;;;;;;;6.47;2.53;;;;;;;;;;5109947;27;21033;-84
2023/12/24 04:47:35;;;;;;;8.53;2.67;;;;;;;;;;5059710;28;20402;-82
2023/12/24 04:50:02;;;;;;;7.30;2.70;;;;;;;;;;5067934;28;20402;-82
2023/12/24 04:52:28;;;;;;;8.73;2.88;;;;;;;;;;5089620;28;20414;-83
2023/12/24 04:54:54;;;;;;;7.78;2.70;;;;;;;;;;5066905;28;20401;-83
2023/12/24 04:57:20;;;;;;;7.60;3.22;;;;;;;;;;5074170;28;20401;-84
2023/12/24 04:59:46;;;;;;;12.20;3.63;;;;;;;;;;5088231;28;20393;-84
2023/12/24 05:02:12;;;;;;;6.85;3.30;;;;;;;;;;5089186;28;20404;-82
2023/12/24 05:04:39;;;;;;;7.15;3.20;;;;;;;;;;5085582;28;20395;-83
2023/12/24 05:07:05;;;;;;;10.48;3.65;;;;;;;;;;5071966;28;20405;-83
2023/12/24 05:09:32;;;;;;;7.40;3.60;;;;;;;;;;5090217;28;20400;-83
2023/12/24 05:11:58;;;;;;;10.52;3.78;;;;;;;;;;5088775;28;20429;-83
2023/12/24 05:14:24;;;;;;;9.77;4.10;;;;;;;;;;5071441;28;20458;-82
2023/12/24 05:16:52;;;;;;;10.52;4.40;;;;;;;;;;5073278;28;20742;-83
2023/12/24 05:19:18;;;;;;;11.30;4.13;;;;;;;;;;5072480;28;20413;-84
2023/12/24 05:21:44;;;;;;;15.52;4.57;;;;;;;;;;5052097;28;20399;-82
2023/12/24 05:24:17;;;;;;;13.63;5.07;;;;;;;;;;5055080;28;20490;-82
2023/12/24 05:26:46;;;;;;;13.77;5.40;;;;;;;;;;5078281;28;20419;-84
2023/12/24 05:29:12;;;;;;;12.95;5.35;;;;;;;;;;5105636;28;20410;-84
2023/12/24 05:31:47;;;;;;;15.32;6.05;;;;;;;;;;5113287;27;20931;-83
2023/12/24 05:34:13;;;;;;;14.90;5.70;;;;;;;;;;5084308;28;20399;-83
2023/12/24 05:36:40;;;;;;;14.70;5.40;;;;;;;;;;5086943;28;20404;-82
2023/12/24 05:39:15;;;;;;;15.52;5.88;;;;;;;;;;5070115;28;20396;-82
2023/12/24 05:41:56;;;;;;;15.63;6.00;;;;;;;;;;5112195;28;20628;-82
2023/12/24 05:44:22;;;;;;;17.77;5.82;;;;;;;;;;5084384;28;20406;-81
2023/12/24 05:46:55;;;;;;;18.45;6.60;;;;;;;;;;5114527;28;20754;-82
2023/12/24 05:49:21;;;;;;;17.97;6.70;;;;;;;;;;5072635;28;20398;-82
2023/12/24 05:52:11;;;;;;;17.25;6.88;;;;;;;;;;5079482;28;20419;-82
2023/12/24 05:54:54;;;;;;;19.45;6.82;;;;;;;;;;5110691;28;20414;-82
2023/12/24 05:57:26;;;;;;;18.25;6.75;;;;;;;;;;5048924;28;20411;-82
2023/12/24 06:00:18;;;;;;;19.13;6.72;;;;;;;;;;5052215;28;20851;-82
2023/12/24 06:02:53;;;;;;;23.30;7.50;;;;;;;;;;5027797;28;20535;-82
2023/12/24 06:05:19;;;;;;;22.77;7.53;;;;;;;;;;5048236;28;20530;-82
2023/12/24 06:07:47;;;;;;;26.00;7.20;;;;;;;;;;5041740;28;20448;-82
2023/12/24 06:13:05;;;;;;;22.75;6.63;;;;;;;;;;4952711;28;20422;-82
2023/12/24 06:15:35;;;;;;;21.13;6.40;;;;;;;;;;4937320;28;20402;-82
2023/12/24 06:18:20;;;;;;;21.30;6.47;;;;;;;;;;4962286;28;20804;-82
2023/12/24 06:20:46;;;;;;;27.30;6.35;;;;;;;;;;4970164;28;20416;-82
2023/12/24 06:23:13;;;;;;;20.20;5.50;;;;;;;;;;4970842;28;20916;-82
2023/12/24 06:25:39;;;;;;;21.27;5.95;;;;;;;;;;5020271;28;20438;-82
2023/12/24 06:28:07;;;;;;;19.25;5.95;;;;;;;;;;5053069;28;20431;-82
2023/12/24 06:30:34;;;;;;;23.23;6.25;;;;;;;;;;5049756;28;20423;-84
2023/12/24 06:33:00;;;;;;;28.25;6.10;;;;;;;;;;5053345;28;20461;-84
2023/12/24 06:35:28;;;;;;;24.55;6.40;;;;;;;;;;5029401;28;20892;-84
2023/12/24 06:37:54;;;;;;;21.08;6.10;;;;;;;;;;5044020;28;20405;-84
2023/12/24 06:40:21;;;;;;;22.95;6.43;;;;;;;;;;5037885;28;20883;-84
2023/12/24 06:42:50;;;;;;;28.38;6.80;;;;;;;;;;5053067;28;20410;-82
2023/12/24 06:45:16;;;;;;;24.20;5.97;;;;;;;;;;5067642;28;20437;-83
2023/12/24 06:47:44;;;;;;;23.48;6.07;;;;;;;;;;5039359;28;20421;-82
2023/12/24 06:50:10;;;;;;;19.08;6.30;;;;;;;;;;5040957;28;20421;-82
2023/12/24 06:52:36;;;;;;;25.65;6.50;;;;;;;;;;5094223;28;20453;-82
2023/12/24 06:55:02;;;;;;;22.65;6.22;;;;;;;;;;5077790;28;20394;-83
2023/12/24 07:00:42;;;;;;;24.08;6.68;;;;;;;;;;5074201;28;20398;-83
2023/12/24 07:03:18;;;;;;;24.48;6.45;;;;;;;;;;5065954;28;20427;-84
2023/12/24 07:05:44;;;;;;;24.38;6.22;;;;;;;;;;5075239;28;20402;-83
2023/12/24 07:08:16;;;;;;;21.08;5.88;;;;;;;;;;5060968;28;20732;-83
2023/12/24 07:10:53;;;;;;;24.75;5.60;;;;;;;;;;5077784;28;20406;-83
2023/12/24 07:13:19;;;;;;;24.38;6.28;;;;;;;;;;5087500;28;20922;-84
2023/12/24 07:15:48;;;;;;;18.35;5.57;;;;;;;;;;5070590;28;20406;-82
2023/12/24 07:18:14;;;;;;;20.17;5.67;;;;;;;;;;5073518;28;20759;-82
2023/12/24 07:20:56;;;;;;;21.98;5.80;;;;;;;;;;5065404;28;20438;-82
2023/12/24 07:23:38;;;;;;;21.57;5.53;;;;;;;;;;5057608;28;20430;-82
2023/12/24 07:26:23;;;;;;;21.63;5.40;;;;;;;;;;5072879;28;20401;-82
2023/12/24 07:28:49;;;;;;;15.38;5.07;;;;;;;;;;5068920;28;20425;-82
2023/12/24 07:31:15;;;;;;;21.80;5.40;;;;;;;;;;5075271;28;20402;-82
2023/12/24 07:33:42;;;;;;;23.58;5.68;;;;;;;;;;5079321;28;20440;-82
2023/12/24 07:36:15;;;;;;;25.67;6.20;;;;;;;;;;5061551;28;20402;-82
2023/12/24 07:38:41;;;;;;;22.77;5.28;;;;;;;;;;5075820;28;20405;-81
2023/12/24 07:41:08;;;;;;;22.27;5.70;;;;;;;;;;5075930;28;20410;-82
2023/12/24 07:43:34;;;;;;;21.57;5.47;;;;;;;;;;5069979;28;20621;-83
2023/12/24 07:46:00;;;;;;;29.15;6.35;;;;;;;;;;5065597;28;21028;-82
2023/12/24 07:48:26;;;;;;;30.08;6.15;;;;;;;;;;5070022;28;20398;-82
2023/12/24 07:50:52;;;;;;;28.50;6.40;;;;;;;;;;5055627;28;20570;-81
2023/12/24 07:53:18;;;;;;;28.02;6.57;;;;;;;;;;5092998;28;20465;-81
2023/12/24 07:55:45;;;;;;;26.15;6.00;;;;;;;;;;5092059;28;20402;-81
2023/12/24 07:58:11;;;;;;;22.83;6.18;;;;;;;;;;5089658;28;20410;-82
2023/12/24 08:00:40;;;;;;;23.90;6.50;;;;;;;;;;5060932;28;20394;-82
2023/12/24 08:03:06;;;;;;;21.25;6.45;;;;;;;;;;5089132;28;20409;-81
2023/12/24 08:05:32;;;;;;;27.60;6.43;;;;;;;;;;5058305;28;20492;-82
2023/12/24 08:07:58;;;;;;;24.23;6.50;;;;;;;;;;5084451;28;20437;-82
2023/12/24 08:10:24;;;;;;;24.45;6.10;;;;;;;;;;5076557;28;20414;-82
2023/12/24 08:12:50;;;;;;;23.80;6.18;;;;;;;;;;5084916;28;20453;-82
2023/12/24 08:15:21;;;;;;;24.55;6.20;;;;;;;;;;5091259;28;20404;-80
2023/12/24 08:17:48;;;;;;;20.17;5.38;;;;;;;;;;5078300;28;20407;-82
2023/12/24 08:20:14;;;;;;;18.58;5.60;;;;;;;;;;5099717;28;20913;-86
2023/12/24 08:22:40;;;;;;;21.75;4.80;;;;;;;;;;5059621;28;20404;-85
2023/12/24 08:25:08;;;;;;;23.67;5.40;;;;;;;;;;5089733;28;20521;-85
2023/12/24 08:27:34;;;;;;;23.25;4.95;;;;;;;;;;5085270;28;20470;-84
2023/12/24 08:30:00;;;;;;;26.08;5.78;;;;;;;;;;5091300;28;20409;-86
2023/12/24 08:32:26;;;;;;;25.67;5.60;;;;;;;;;;5076035;28;20425;-86
2023/12/24 08:34:52;;;;;;;23.80;5.47;;;;;;;;;;5091396;28;20913;-87
2023/12/24 08:37:18;;;;;;;23.13;5.18;;;;;;;;;;5092352;28;20398;-85
2023/12/24 08:39:44;;;;;;;24.70;5.28;;;;;;;;;;5070795;28;20523;-85
2023/12/24 08:42:10;;;;;;;27.00;5.50;;;;;;;;;;5073164;28;20956;-81
2023/12/24 08:44:36;;;;;;;24.73;4.55;;;;;;;;;;5071882;28;20473;-82
2023/12/24 08:47:02;;;;;;;21.77;5.28;;;;;;;;;;5102951;28;20398;-81
2023/12/24 08:49:28;;;;;;;27.70;5.03;;;;;;;;;;5108628;27;20435;-82
2023/12/24 08:51:54;;;;;;;25.42;5.18;;;;;;;;;;5067497;28;20434;-82
2023/12/24 08:54:20;;;;;;;21.75;5.05;;;;;;;;;;5082449;28;20394;-82
2023/12/24 08:56:46;;;;;;;23.02;5.13;;;;;;;;;;5061888;28;20394;-83
2023/12/24 08:59:13;;;;;;;26.20;5.77;;;;;;;;;;5068332;28;20520;-82
2023/12/24 09:01:42;;;;;;;21.00;4.60;;;;;;;;;;5082619;28;20479;-83
2023/12/24 09:04:08;;;;;;;18.27;4.85;;;;;;;;;;5086201;28;20468;-82
2023/12/24 09:06:34;;;;;;;22.50;4.90;;;;;;;;;;5088376;28;20750;-82
2023/12/24 09:09:00;;;;;;;27.75;4.70;;;;;;;;;;5091869;28;20458;-83
2023/12/24 09:11:30;;;;;;;24.08;5.35;;;;;;;;;;5073714;28;20424;-83
2023/12/24 09:14:00;;;;;;;25.88;4.90;;;;;;;;;;5075721;28;20789;-82
2023/12/24 09:16:26;;;;;;;27.97;4.90;;;;;;;;;;5082954;28;20449;-82
2023/12/24 09:18:52;;;;;;;21.13;5.15;;;;;;;;;;5070638;28;20405;-82
2023/12/24 09:21:24;;;;;;;20.40;5.10;;;;;;;;;;5047849;28;20469;-82
2023/12/24 09:23:50;;;;;;;24.42;4.88;;;;;;;;;;5063262;28;20450;-82
2023/12/24 09:26:16;;;;;;;19.30;5.13;;;;;;;;;;5060693;28;20408;-83
2023/12/24 09:28:42;;;;;;;20.15;5.05;;;;;;;;;;5037956;28;20755;-83
2023/12/24 09:31:09;;;;;;;20.20;4.43;;;;;;;;;;5063214;28;20397;-83
2023/12/24 09:33:44;;;;;;;18.03;4.10;;;;;;;;;;5056428;28;20544;-82
2023/12/24 09:36:10;;;;;;;20.58;4.72;;;;;;;;;;5061555;28;20405;-81
2023/12/24 09:38:37;;;;;;;22.10;4.77;;;;;;;;;;5039819;28;20444;-80
2023/12/24 09:41:03;;;;;;;24.05;4.90;;;;;;;;;;5079810;28;20403;-81
2023/12/24 09:43:35;;;;;;;18.63;4.45;;;;;;;;;;5055961;28;20424;-83
2023/12/24 09:46:02;;;;;;;21.30;4.05;;;;;;;;;;5057616;28;20437;-82
2023/12/24 09:48:28;;;;;;;23.98;4.10;;;;;;;;;;5054706;28;20413;-81
2023/12/24 09:50:55;;;;;;;28.05;4.20;;;;;;;;;;5050930;28;20897;-82
2023/12/24 09:53:21;;;;;;;17.15;4.40;;;;;;;;;;5036081;28;20435;-81
2023/12/24 09:55:48;;;;;;;19.75;4.40;;;;;;;;;;5067010;28;20421;-82
2023/12/24 09:58:15;;;;;;;20.13;4.38;;;;;;;;;;5041201;28;20459;-82
2023/12/24 10:00:45;;;;;;;21.10;4.15;;;;;;;;;;5060168;28;20390;-81
2023/12/24 10:03:12;;;;;;;18.75;3.95;;;;;;;;;;5057872;28;20405;-81
2023/12/24 10:05:57;;;;;;;16.05;4.22;;;;;;;;;;5053280;28;20409;-81
2023/12/24 10:08:26;;;;;;;15.83;3.77;;;;;;;;;;5080835;28;20479;-81
2023/12/24 10:10:52;;;;;;;19.25;4.45;;;;;;;;;;5060011;28;20528;-83
2023/12/24 10:13:23;;;;;;;16.67;3.50;;;;;;;;;;5051512;28;20925;-83
2023/12/24 10:16:05;;;;;;;22.83;4.55;;;;;;;;;;5084554;28;20433;-82
2023/12/24 10:18:32;;;;;;;19.75;4.00;;;;;;;;;;5121239;28;20409;-83
2023/12/24 10:21:10;;;;;;;15.30;3.65;;;;;;;;;;5091882;28;20764;-82
2023/12/24 10:23:39;;;;;;;17.15;4.13;;;;;;;;;;5074617;28;20485;-80
2023/12/24 10:26:15;;;;;;;16.85;4.00;;;;;;;;;;5090180;28;20398;-80
2023/12/24 10:29:01;;;;;;;17.20;3.67;;;;;;;;;;5062099;28;20415;-81
2023/12/24 10:31:40;;;;;;;18.00;4.30;;;;;;;;;;5097565;28;20455;-84
2023/12/24 10:34:35;;;;;;;17.95;3.65;;;;;;;;;;5073447;28;20390;-84
2023/12/24 10:37:29;;;;;;;19.92;4.50;;;;;;;;;;5068442;28;20403;-83
2023/12/24 10:40:09;;;;;;;18.42;3.85;;;;;;;;;;5084256;28;21142;-84
2023/12/24 10:42:38;;;;;;;15.38;3.20;;;;;;;;;;5095800;28;20453;-82
2023/12/24 10:45:30;;;;;;;14.82;3.40;;;;;;;;;;5075308;28;20565;-83
2023/12/24 10:48:43;;;;;;;17.55;3.90;;;;;;;;;;5081255;28;20902;-82
2023/12/24 10:51:42;;;;;;;20.58;4.03;;;;;;;;;;5085447;28;20978;-81
2023/12/24 10:54:49;;;;;;;17.58;3.65;;;11.80;99.90;;;;;;5091981;28;20889;-83
2023/12/24 10:57:47;;;;;;;14.60;3.47;;;;;;;;;;5067153;28;20439;-83
2023/12/24 11:00:20;;;;;;;15.68;3.40;;;;;;;;;;5073061;28;20800;-82
2023/12/24 11:02:57;;;;;;;16.38;4.07;;;;;;;;;;5061494;28;20405;-83
2023/12/24 11:08:48;;;;;;;16.27;3.80;;;;;;;;;;5084464;28;20427;-81
2023/12/24 11:11:28;;;;;;;17.65;4.38;;;;;;;;;;5072149;28;20417;-82
2023/12/24 11:14:03;;;;;;;22.75;4.85;;;;;;;;;;5040287;28;20476;-82
2023/12/24 11:16:41;;;;;;;18.53;4.60;;;;;;;;;;5069577;28;20416;-82
2023/12/24 11:19:07;;;;;;;18.48;4.95;;;;;;;;;;5070473;28;20422;-82
2023/12/24 11:22:11;;;;;;;13.15;4.28;;;;;;;;;;5073833;28;20484;-84
2023/12/24 11:25:00;;;;;;;14.48;4.25;;;;;;;;;;5091883;28;20417;-84
2023/12/24 11:52:37;;;;;;;13.00;3.35;;;;;;;;;;4918324;28;20927;-83
2023/12/24 11:55:16;;;;;;;17.30;4.43;;;;;;;;;;5039478;28;20400;-84
2023/12/24 11:58:07;;;;;;;13.35;3.90;;;;;;;;;;5043329;28;20415;-81
2023/12/24 12:04:17;;;;;;;19.98;4.40;;;;;;;;;;5077538;28;20378;-84
2023/12/24 12:06:45;;;;;;;16.63;3.97;;;;;;;;;;5081650;28;20411;-84
2023/12/24 12:09:19;;;;;;;15.82;4.35;;;;;;;;;;5091495;28;20426;-84
2023/12/24 12:12:24;;;;;;;30.67;8.47;;;;;;;;;;5065329;28;20811;-82
2023/12/24 12:15:23;;;;;;;16.85;4.25;;;;;;;;;;5062420;28;20454;-83
2023/12/24 12:17:49;;;;;;;17.65;4.10;;;;;;;;;;5049462;28;20577;-81
2023/12/24 12:20:21;;;;;;;13.60;3.90;;;;;;;;;;5018846;28;20397;-81
2023/12/24 12:22:58;;;;;;;16.67;4.10;;;;;;;;;;5036152;28;20401;-81
2023/12/24 12:25:30;;;;;;;14.35;3.78;;;;;;;;;;5023587;28;20514;-82
2023/12/24 12:27:56;;;;;;;16.33;4.03;;;;;;;;;;5028244;28;20579;-82
2023/12/24 12:30:26;;;;;;;14.02;3.67;;;;;;;;;;5011197;28;20787;-82
2023/12/24 12:32:54;;;;;;;18.45;4.20;;;;;;;;;;5012392;28;20799;-82
2023/12/24 12:35:24;;;;;;;15.73;3.93;;;;;;;;;;4995388;28;20556;-82
2023/12/24 12:37:51;;;;;;;15.23;3.88;;;;;;;;;;5033668;28;20412;-83
2023/12/24 12:40:18;;;;;;;17.15;4.15;;;;;;;;;;5068525;28;20417;-82
2023/12/24 12:42:45;;;;;;;16.13;3.60;;;;;;;;;;5061951;28;20535;-82
2023/12/24 12:45:14;;;;;;;13.02;3.80;;;;;;;;;;5050437;28;20411;-82
2023/12/24 12:47:41;;;;;;;14.70;4.10;;;;;;;;;;5075886;28;20483;-82
2023/12/24 12:50:09;;;;;;;15.93;4.55;;;;;;;;;;5052146;28;20787;-82
2023/12/24 12:52:41;;;;;;;14.18;3.92;;;;;;;;;;5073206;28;20503;-82
2023/12/24 12:55:12;;;;;;;17.85;4.20;;;;;;;;;;5060057;28;20575;-81
2023/12/24 12:57:48;;;;;;;14.05;3.78;;;;;;;;;;5107476;27;20410;-82
2023/12/24 13:00:19;;;;;;;22.25;4.43;;;;;;;;;;5087640;28;20445;-82
2023/12/24 13:02:54;;;;;;;16.98;3.80;;;;;;;;;;5072006;28;20541;-82
2023/12/24 13:05:28;;;;;;;17.88;4.30;;;;;;;;;;5051867;28;20393;-82
2023/12/24 13:07:58;;;;;;;17.52;4.20;;;;;;;;;;5110778;27;20398;-81
2023/12/24 13:10:43;;;;;;;20.80;4.40;;;;;;;;;;5068403;28;20434;-82
2023/12/24 13:13:23;;;;;;;18.52;4.90;;;;;;;;;;5074839;28;20425;-82
2023/12/24 13:16:06;;;;;;;15.98;4.80;;;;;;;;;;5060590;28;20415;-82
2023/12/24 13:18:33;;;;;;;19.52;4.85;;;;;;;;;;5084280;28;20410;-82
2023/12/24 13:21:03;;;;;;;20.80;4.53;;;;;;;;;;5038811;28;20401;-82
2023/12/24 13:23:31;;;;;;;16.98;4.25;;;;;;;;;;5050921;28;20877;-82
2023/12/24 13:26:04;;;;;;;18.80;4.90;;;;;;;;;;5056766;28;20394;-83
2023/12/24 13:28:33;;;;;;;19.80;4.60;;;;;;;;;;5042849;28;20784;-82
2023/12/24 13:31:00;;;;;;;22.70;5.20;;;;;;;;;;5049567;28;20409;-82
2023/12/24 13:33:38;;;;;;;19.02;5.13;;;;;;;;;;5057683;28;20422;-83
2023/12/24 13:36:19;;;;;;;17.10;5.05;;;;;;;;;;5060335;28;20416;-83
2023/12/24 13:38:58;;;;;;;19.38;5.20;;;;;;;;;;5049479;28;20410;-83
2023/12/24 13:41:24;;;;;;;18.13;5.35;;;;;;;;;;5051023;28;20452;-83
2023/12/24 13:44:16;;;;;;;17.50;5.13;;;;;;;;;;5041716;28;20754;-84
2023/12/24 13:46:49;;;;;;;21.90;5.50;;;;;;;;;;5085760;28;20547;-84
2023/12/24 13:49:27;;;;;;;15.98;5.35;;;;;;;;;;5049414;28;20415;-85
2023/12/24 13:51:58;;;;;;;16.10;4.82;;;;;;;;;;5069881;28;20419;-84
2023/12/24 13:54:36;;;;;;;17.65;5.30;;;;;;;;;;5056775;28;20394;-85
2023/12/24 13:57:03;;;;;;;14.73;4.23;;;;;;;;;;5077349;28;20393;-85
2023/12/24 13:59:33;;;;;;;21.75;5.70;;;;;;;;;;5067670;28;20487;-87
2023/12/24 14:01:59;;;;;;;14.25;4.80;;;;;;;;;;5067559;28;20772;-87
2023/12/24 14:04:25;;;;;;;13.57;4.50;;;;;;;;;;5074959;28;20477;-86
2023/12/24 14:06:51;;;;;;;13.30;4.82;;;;;;;;;;5040042;28;20411;-86
2023/12/24 14:09:17;;;;;;;16.85;4.50;;;;;;;;;;5088528;28;20423;-87
2023/12/24 14:11:43;;;;;;;13.52;3.65;;;;;;;;;;5072605;28;20432;-86
2023/12/24 14:14:09;;;;;;;17.55;4.60;;;;;;;;;;5078824;28;20423;-87
2023/12/24 14:16:36;;;;;;;13.57;4.20;;;;;;;;;;5089859;28;20402;-86
2023/12/24 14:19:02;;;;;;;13.15;3.88;;;;;;;;;;5091020;28;20492;-87
2023/12/24 14:21:29;;;;;;;9.82;2.70;;;;;;;;;;5071925;28;20407;-85
2023/12/24 14:23:55;;;;;;;12.15;3.00;;;;;;;;;;5092407;28;20401;-86
2023/12/24 14:26:21;;;;;;;6.32;2.20;;;;;;;;;;5093402;28;20423;-86
2023/12/24 14:28:47;;;;;;;0.60;0.20;;;;;;;;;;5059498;28;20398;-85
2023/12/24 14:31:26;;;;;;;0.50;0.50;;;;;;;;;;5083018;28;20476;-86
2023/12/24 14:33:55;;;;;;;0.10;0.10;;;;;;;;;;5074158;28;20403;-85
2023/12/24 14:36:23;;;;;;;0.10;0.10;;;;;;;;;;5100149;28;20509;-86
2023/12/24 14:38:55;;;;;;;0.15;0.15;;;;;;;;;;5093361;28;20406;-86
2023/12/24 14:41:43;;;;;;;0.10;0.10;;;;;;;;;;5081356;28;20391;-86
2023/12/24 14:44:44;;;;;;;0.10;0.10;;;;;;;;;;5083743;28;20456;-84
2023/12/24 14:47:17;;;;;;;0.10;0.10;;;;;;;;;;5093473;28;20486;-85
2023/12/24 14:49:46;;;;;;;0.70;0.40;;;;;;;;;;5092522;28;20410;-85
2023/12/24 14:52:22;;;;;;;0.20;0.20;;;;;;;;;;5055781;28;20430;-86
2023/12/24 14:54:59;;;;;;;0.65;0.40;;;;;;;;;;5060751;28;20459;-85
2023/12/24 14:57:25;;;;;;;0.10;0.10;;;;;;;;;;5073491;28;20485;-85
2023/12/24 15:00:20;;;;;;;0.20;0.20;;;;;;;;;;5067962;28;20429;-86
2023/12/24 15:02:46;;;;;;;0.10;0.10;;;;;;;;;;5066336;28;20408;-85
2023/12/24 15:05:21;;;;;;;0.20;0.20;;;;;;;;;;5056743;28;20827;-84
2023/12/24 15:07:56;;;;;;;8.32;2.60;;;;;;;;;;5080944;28;20529;-85
2023/12/24 15:10:33;;;;;;;9.20;3.00;;;;;;;;;;5090876;28;20746;-84
2023/12/24 15:13:06;;;;;;;0.13;0.13;;;;;;;;;;5122017;27;20907;-83
2023/12/24 15:15:38;;;;;;;0.10;0.10;;;;;;;;;;5111181;27;20474;-83
2023/12/24 15:18:13;;;;;;;0.10;0.10;;;;;;;;;;5094383;28;20544;-84
2023/12/24 15:20:48;;;;;;;1.30;1.00;;;;;;;;;;5076784;28;20398;-83
2023/12/24 15:23:23;;;;;;;0.03;0.03;;;;;;;;;;5086009;28;20505;-83
2023/12/24 15:26:06;;;;;;;0.08;0.08;;;;;;;;;;5065280;28;20905;-84
2023/12/24 15:28:44;;;;;;;0.22;0.22;;;;;;;;;;5056432;28;20883;-85